sensor_id;sensor_type;location;lat;lon;timestamp;temperature;humidity
6206;DHT22;3136;48.788;9.772;2023-06-19T00:00:10;20.60;37.60
6206;DHT22;3136;48.788;9.772;2023-06-19T00:02:41;20.60;38.30
6206;DHT22;3136;48.788;9.772;2023-06-19T00:05:07;20.60;36.60
6206;DHT22;3136;48.788;9.772;2023-06-19T00:07:34;20.50;37.70
6206;DHT22;3136;48.788;9.772;2023-06-19T00:10:00;20.50;38.90
6206;DHT22;3136;48.788;9.772;2023-06-19T00:12:25;20.30;39.60
6206;DHT22;3136;48.788;9.772;2023-06-19T00:14:51;20.30;40.70
6206;DHT22;3136;48.788;9.772;2023-06-19T00:17:16;20.30;41.50
6206;DHT22;3136;48.788;9.772;2023-06-19T00:19:43;20.20;40.00
6206;DHT22;3136;48.788;9.772;2023-06-19T00:22:09;20.30;42.00
6206;DHT22;3136;48.788;9.772;2023-06-19T00:24:34;20.20;42.10
6206;DHT22;3136;48.788;9.772;2023-06-19T00:27:00;20.10;41.40
6206;DHT22;3136;48.788;9.772;2023-06-19T00:29:32;20.10;41.20
6206;DHT22;3136;48.788;9.772;2023-06-19T00:31:58;20.10;41.10
6206;DHT22;3136;48.788;9.772;2023-06-19T00:34:24;20.10;41.30
6206;DHT22;3136;48.788;9.772;2023-06-19T00:36:50;20.00;43.10
6206;DHT22;3136;48.788;9.772;2023-06-19T00:39:16;20.10;42.30
6206;DHT22;3136;48.788;9.772;2023-06-19T00:41:43;20.00;42.40
6206;DHT22;3136;48.788;9.772;2023-06-19T00:44:10;19.80;46.00
6206;DHT22;3136;48.788;9.772;2023-06-19T00:46:40;20.00;44.00
6206;DHT22;3136;48.788;9.772;2023-06-19T00:49:06;19.80;44.20
6206;DHT22;3136;48.788;9.772;2023-06-19T00:51:32;19.70;44.20
6206;DHT22;3136;48.788;9.772;2023-06-19T00:53:58;19.80;44.40
6206;DHT22;3136;48.788;9.772;2023-06-19T00:56:23;20.00;46.20
6206;DHT22;3136;48.788;9.772;2023-06-19T00:58:49;19.80;46.70
6206;DHT22;3136;48.788;9.772;2023-06-19T01:01:15;19.80;45.60
6206;DHT22;3136;48.788;9.772;2023-06-19T01:03:41;19.80;48.00
6206;DHT22;3136;48.788;9.772;2023-06-19T01:06:13;19.80;47.00
6206;DHT22;3136;48.788;9.772;2023-06-19T01:08:59;19.70;48.10
6206;DHT22;3136;48.788;9.772;2023-06-19T01:11:41;19.70;49.20
6206;DHT22;3136;48.788;9.772;2023-06-19T01:14:28;19.70;49.30
6206;DHT22;3136;48.788;9.772;2023-06-19T01:16:56;19.60;52.60
6206;DHT22;3136;48.788;9.772;2023-06-19T01:19:22;19.60;52.00
6206;DHT22;3136;48.788;9.772;2023-06-19T01:21:48;19.50;54.80
6206;DHT22;3136;48.788;9.772;2023-06-19T01:24:14;19.50;54.60
6206;DHT22;3136;48.788;9.772;2023-06-19T01:26:41;19.50;54.10
6206;DHT22;3136;48.788;9.772;2023-06-19T01:29:07;19.40;54.80
6206;DHT22;3136;48.788;9.772;2023-06-19T01:31:42;19.40;55.10
6206;DHT22;3136;48.788;9.772;2023-06-19T01:34:10;19.40;56.80
6206;DHT22;3136;48.788;9.772;2023-06-19T01:36:37;19.50;56.30
6206;DHT22;3136;48.788;9.772;2023-06-19T01:39:03;19.40;57.10
6206;DHT22;3136;48.788;9.772;2023-06-19T01:41:30;19.40;57.00
6206;DHT22;3136;48.788;9.772;2023-06-19T01:43:56;19.40;84.00
6206;DHT22;3136;48.788;9.772;2023-06-19T01:46:22;19.40;59.50
6206;DHT22;3136;48.788;9.772;2023-06-19T01:48:48;19.40;58.60
6206;DHT22;3136;48.788;9.772;2023-06-19T01:51:13;19.40;59.60
6206;DHT22;3136;48.788;9.772;2023-06-19T01:53:39;19.40;59.30
6206;DHT22;3136;48.788;9.772;2023-06-19T01:56:05;19.30;62.10
6206;DHT22;3136;48.788;9.772;2023-06-19T01:58:30;19.40;58.50
6206;DHT22;3136;48.788;9.772;2023-06-19T02:00:56;19.40;57.80
6206;DHT22;3136;48.788;9.772;2023-06-19T02:03:21;19.30;57.00
6206;DHT22;3136;48.788;9.772;2023-06-19T02:05:47;19.40;57.10
6206;DHT22;3136;48.788;9.772;2023-06-19T02:08:12;19.50;59.00
6206;DHT22;3136;48.788;9.772;2023-06-19T02:10:38;19.40;59.70
6206;DHT22;3136;48.788;9.772;2023-06-19T02:13:04;19.50;60.40
6206;DHT22;3136;48.788;9.772;2023-06-19T02:15:29;19.50;56.50
6206;DHT22;3136;48.788;9.772;2023-06-19T02:17:56;19.40;57.80
6206;DHT22;3136;48.788;9.772;2023-06-19T02:20:22;19.60;55.90
6206;DHT22;3136;48.788;9.772;2023-06-19T02:22:49;19.40;58.10
6206;DHT22;3136;48.788;9.772;2023-06-19T02:25:15;19.50;56.10
6206;DHT22;3136;48.788;9.772;2023-06-19T02:27:41;19.50;55.10
6206;DHT22;3136;48.788;9.772;2023-06-19T02:30:07;19.50;55.20
6206;DHT22;3136;48.788;9.772;2023-06-19T02:32:32;19.40;56.10
6206;DHT22;3136;48.788;9.772;2023-06-19T02:34:58;19.40;53.50
6206;DHT22;3136;48.788;9.772;2023-06-19T02:37:24;19.30;53.30
6206;DHT22;3136;48.788;9.772;2023-06-19T02:39:49;19.50;54.20
6206;DHT22;3136;48.788;9.772;2023-06-19T02:42:15;19.30;55.60
6206;DHT22;3136;48.788;9.772;2023-06-19T02:44:40;19.30;55.00
6206;DHT22;3136;48.788;9.772;2023-06-19T02:47:07;19.20;57.60
6206;DHT22;3136;48.788;9.772;2023-06-19T02:49:33;19.10;58.80
6206;DHT22;3136;48.788;9.772;2023-06-19T02:51:59;19.00;58.80
6206;DHT22;3136;48.788;9.772;2023-06-19T02:54:24;19.00;60.00
6206;DHT22;3136;48.788;9.772;2023-06-19T02:56:50;19.00;60.80
6206;DHT22;3136;48.788;9.772;2023-06-19T02:59:15;18.90;63.10
6206;DHT22;3136;48.788;9.772;2023-06-19T03:01:41;18.90;63.80
6206;DHT22;3136;48.788;9.772;2023-06-19T03:04:06;18.90;62.70
6206;DHT22;3136;48.788;9.772;2023-06-19T03:06:32;19.30;64.50
6206;DHT22;3136;48.788;9.772;2023-06-19T03:09:06;18.80;63.90
6206;DHT22;3136;48.788;9.772;2023-06-19T03:11:40;18.70;65.70
6206;DHT22;3136;48.788;9.772;2023-06-19T03:14:07;18.70;65.50
6206;DHT22;3136;48.788;9.772;2023-06-19T03:16:33;18.50;64.60
6206;DHT22;3136;48.788;9.772;2023-06-19T03:19:00;18.70;68.50
6206;DHT22;3136;48.788;9.772;2023-06-19T03:21:25;18.60;66.50
6206;DHT22;3136;48.788;9.772;2023-06-19T03:23:51;18.70;68.30
6206;DHT22;3136;48.788;9.772;2023-06-19T03:26:18;18.50;69.00
6206;DHT22;3136;48.788;9.772;2023-06-19T03:28:44;18.50;70.50
6206;DHT22;3136;48.788;9.772;2023-06-19T03:31:09;18.50;71.20
6206;DHT22;3136;48.788;9.772;2023-06-19T03:33:35;18.40;71.60
6206;DHT22;3136;48.788;9.772;2023-06-19T03:36:00;18.50;71.60
6206;DHT22;3136;48.788;9.772;2023-06-19T03:38:26;18.50;73.10
6206;DHT22;3136;48.788;9.772;2023-06-19T03:40:51;18.50;73.30
6206;DHT22;3136;48.788;9.772;2023-06-19T03:43:17;18.50;75.50
6206;DHT22;3136;48.788;9.772;2023-06-19T03:45:42;18.50;75.90
6206;DHT22;3136;48.788;9.772;2023-06-19T03:48:08;18.40;76.20
6206;DHT22;3136;48.788;9.772;2023-06-19T03:50:33;18.50;76.60
6206;DHT22;3136;48.788;9.772;2023-06-19T03:52:59;18.60;76.90
6206;DHT22;3136;48.788;9.772;2023-06-19T03:55:24;18.50;76.60
6206;DHT22;3136;48.788;9.772;2023-06-19T03:57:50;18.50;78.60
6206;DHT22;3136;48.788;9.772;2023-06-19T04:00:16;18.50;76.90
6206;DHT22;3136;48.788;9.772;2023-06-19T04:02:43;18.60;76.60
6206;DHT22;3136;48.788;9.772;2023-06-19T04:05:11;18.60;75.60
6206;DHT22;3136;48.788;9.772;2023-06-19T04:07:37;18.80;75.40
6206;DHT22;3136;48.788;9.772;2023-06-19T04:10:03;18.90;74.00
6206;DHT22;3136;48.788;9.772;2023-06-19T04:12:28;19.20;70.90
6206;DHT22;3136;48.788;9.772;2023-06-19T04:14:54;19.40;69.50
6206;DHT22;3136;48.788;9.772;2023-06-19T04:17:20;19.70;69.00
6206;DHT22;3136;48.788;9.772;2023-06-19T04:19:45;20.00;62.90
6206;DHT22;3136;48.788;9.772;2023-06-19T04:22:11;20.00;63.50
6206;DHT22;3136;48.788;9.772;2023-06-19T04:24:36;20.20;62.70
6206;DHT22;3136;48.788;9.772;2023-06-19T04:27:02;20.40;61.40
6206;DHT22;3136;48.788;9.772;2023-06-19T04:29:27;20.40;59.80
6206;DHT22;3136;48.788;9.772;2023-06-19T04:31:58;20.40;60.30
6206;DHT22;3136;48.788;9.772;2023-06-19T04:34:23;20.50;63.10
6206;DHT22;3136;48.788;9.772;2023-06-19T04:36:49;20.50;65.40
6206;DHT22;3136;48.788;9.772;2023-06-19T04:39:14;20.40;66.50
6206;DHT22;3136;48.788;9.772;2023-06-19T04:41:43;20.40;66.80
6206;DHT22;3136;48.788;9.772;2023-06-19T04:44:09;20.30;65.90
6206;DHT22;3136;48.788;9.772;2023-06-19T04:46:37;20.30;66.50
6206;DHT22;3136;48.788;9.772;2023-06-19T04:49:03;20.40;67.80
6206;DHT22;3136;48.788;9.772;2023-06-19T04:51:30;20.30;65.00
6206;DHT22;3136;48.788;9.772;2023-06-19T04:53:56;20.50;62.30
6206;DHT22;3136;48.788;9.772;2023-06-19T04:56:21;20.50;62.70
6206;DHT22;3136;48.788;9.772;2023-06-19T04:58:47;20.40;64.10
6206;DHT22;3136;48.788;9.772;2023-06-19T05:01:16;20.60;63.80
6206;DHT22;3136;48.788;9.772;2023-06-19T05:03:44;20.70;64.10
6206;DHT22;3136;48.788;9.772;2023-06-19T05:06:11;20.80;65.50
6206;DHT22;3136;48.788;9.772;2023-06-19T05:08:37;20.70;63.30
6206;DHT22;3136;48.788;9.772;2023-06-19T05:11:03;20.80;65.60
6206;DHT22;3136;48.788;9.772;2023-06-19T05:13:28;20.80;64.60
6206;DHT22;3136;48.788;9.772;2023-06-19T05:15:54;20.90;62.60
6206;DHT22;3136;48.788;9.772;2023-06-19T05:18:21;21.00;62.00
6206;DHT22;3136;48.788;9.772;2023-06-19T05:20:47;21.00;61.40
6206;DHT22;3136;48.788;9.772;2023-06-19T05:23:12;21.10;62.40
6206;DHT22;3136;48.788;9.772;2023-06-19T05:25:38;21.10;61.30
6206;DHT22;3136;48.788;9.772;2023-06-19T05:28:04;21.20;62.60
6206;DHT22;3136;48.788;9.772;2023-06-19T05:30:29;21.20;62.40
6206;DHT22;3136;48.788;9.772;2023-06-19T05:32:55;21.30;63.20
6206;DHT22;3136;48.788;9.772;2023-06-19T05:35:21;21.30;61.50
6206;DHT22;3136;48.788;9.772;2023-06-19T05:37:47;21.30;59.00
6206;DHT22;3136;48.788;9.772;2023-06-19T05:40:13;21.40;60.00
6206;DHT22;3136;48.788;9.772;2023-06-19T05:42:39;21.40;56.90
6206;DHT22;3136;48.788;9.772;2023-06-19T05:45:05;21.40;56.70
6206;DHT22;3136;48.788;9.772;2023-06-19T05:47:31;21.50;59.40
6206;DHT22;3136;48.788;9.772;2023-06-19T05:49:57;21.60;60.00
6206;DHT22;3136;48.788;9.772;2023-06-19T05:52:23;21.60;58.90
6206;DHT22;3136;48.788;9.772;2023-06-19T05:54:50;21.60;58.30
6206;DHT22;3136;48.788;9.772;2023-06-19T05:57:15;21.70;59.40
6206;DHT22;3136;48.788;9.772;2023-06-19T05:59:42;21.70;55.90
6206;DHT22;3136;48.788;9.772;2023-06-19T06:02:07;21.80;54.60
6206;DHT22;3136;48.788;9.772;2023-06-19T06:04:33;21.90;53.70
6206;DHT22;3136;48.788;9.772;2023-06-19T06:07:00;21.90;57.40
6206;DHT22;3136;48.788;9.772;2023-06-19T06:09:25;21.90;53.90
6206;DHT22;3136;48.788;9.772;2023-06-19T06:11:52;21.90;54.70
6206;DHT22;3136;48.788;9.772;2023-06-19T06:14:18;22.00;52.90
6206;DHT22;3136;48.788;9.772;2023-06-19T06:16:43;22.10;53.90
6206;DHT22;3136;48.788;9.772;2023-06-19T06:19:09;22.10;52.50
6206;DHT22;3136;48.788;9.772;2023-06-19T06:21:34;22.30;52.70
6206;DHT22;3136;48.788;9.772;2023-06-19T06:24:00;22.30;51.30
6206;DHT22;3136;48.788;9.772;2023-06-19T06:26:26;22.50;51.10
6206;DHT22;3136;48.788;9.772;2023-06-19T06:28:53;22.60;50.60
6206;DHT22;3136;48.788;9.772;2023-06-19T06:31:18;22.70;52.00
6206;DHT22;3136;48.788;9.772;2023-06-19T06:33:44;22.80;50.40
6206;DHT22;3136;48.788;9.772;2023-06-19T06:36:10;22.90;50.20
6206;DHT22;3136;48.788;9.772;2023-06-19T06:38:35;22.90;52.30
6206;DHT22;3136;48.788;9.772;2023-06-19T06:41:01;23.00;50.50
6206;DHT22;3136;48.788;9.772;2023-06-19T06:43:27;23.00;47.70
6206;DHT22;3136;48.788;9.772;2023-06-19T06:45:53;23.10;47.10
6206;DHT22;3136;48.788;9.772;2023-06-19T06:48:18;23.20;47.70
6206;DHT22;3136;48.788;9.772;2023-06-19T06:50:44;23.20;48.90
6206;DHT22;3136;48.788;9.772;2023-06-19T06:53:10;23.20;47.70
6206;DHT22;3136;48.788;9.772;2023-06-19T06:55:35;23.40;50.00
6206;DHT22;3136;48.788;9.772;2023-06-19T06:58:01;23.50;47.50
6206;DHT22;3136;48.788;9.772;2023-06-19T07:00:27;23.60;47.90
6206;DHT22;3136;48.788;9.772;2023-06-19T07:02:53;23.60;45.00
6206;DHT22;3136;48.788;9.772;2023-06-19T07:05:18;23.50;44.20
6206;DHT22;3136;48.788;9.772;2023-06-19T07:07:44;23.60;45.50
6206;DHT22;3136;48.788;9.772;2023-06-19T07:10:10;23.70;47.30
6206;DHT22;3136;48.788;9.772;2023-06-19T07:12:43;23.70;43.50
6206;DHT22;3136;48.788;9.772;2023-06-19T07:15:09;23.70;46.50
6206;DHT22;3136;48.788;9.772;2023-06-19T07:17:34;23.70;45.80
6206;DHT22;3136;48.788;9.772;2023-06-19T07:20:00;23.70;44.70
6206;DHT22;3136;48.788;9.772;2023-06-19T07:22:25;23.80;45.90
6206;DHT22;3136;48.788;9.772;2023-06-19T07:24:51;23.80;49.10
6206;DHT22;3136;48.788;9.772;2023-06-19T07:27:17;23.90;44.40
6206;DHT22;3136;48.788;9.772;2023-06-19T07:29:44;24.00;44.00
6206;DHT22;3136;48.788;9.772;2023-06-19T07:32:09;24.00;42.10
6206;DHT22;3136;48.788;9.772;2023-06-19T07:34:36;24.20;44.30
6206;DHT22;3136;48.788;9.772;2023-06-19T07:37:01;24.30;39.10
6206;DHT22;3136;48.788;9.772;2023-06-19T07:39:27;24.40;42.00
6206;DHT22;3136;48.788;9.772;2023-06-19T07:41:52;24.50;40.60
6206;DHT22;3136;48.788;9.772;2023-06-19T07:44:18;24.60;37.90
6206;DHT22;3136;48.788;9.772;2023-06-19T07:46:46;24.50;37.00
6206;DHT22;3136;48.788;9.772;2023-06-19T07:49:11;24.60;37.80
6206;DHT22;3136;48.788;9.772;2023-06-19T07:51:37;24.70;37.30
6206;DHT22;3136;48.788;9.772;2023-06-19T07:54:02;24.80;38.40
6206;DHT22;3136;48.788;9.772;2023-06-19T07:56:28;24.90;36.20
6206;DHT22;3136;48.788;9.772;2023-06-19T07:58:54;24.90;34.20
6206;DHT22;3136;48.788;9.772;2023-06-19T08:01:19;24.90;33.50
6206;DHT22;3136;48.788;9.772;2023-06-19T08:03:45;24.80;35.10
6206;DHT22;3136;48.788;9.772;2023-06-19T08:06:11;24.80;35.50
6206;DHT22;3136;48.788;9.772;2023-06-19T08:08:37;24.80;34.50
6206;DHT22;3136;48.788;9.772;2023-06-19T08:11:02;24.90;35.40
6206;DHT22;3136;48.788;9.772;2023-06-19T08:13:28;25.10;35.40
6206;DHT22;3136;48.788;9.772;2023-06-19T08:15:54;25.10;34.40
6206;DHT22;3136;48.788;9.772;2023-06-19T08:18:19;25.30;34.40
6206;DHT22;3136;48.788;9.772;2023-06-19T08:20:45;25.40;35.90
6206;DHT22;3136;48.788;9.772;2023-06-19T08:23:10;25.40;33.60
6206;DHT22;3136;48.788;9.772;2023-06-19T08:25:36;25.40;33.90
6206;DHT22;3136;48.788;9.772;2023-06-19T08:28:02;25.40;32.90
6206;DHT22;3136;48.788;9.772;2023-06-19T08:30:27;25.50;30.40
6206;DHT22;3136;48.788;9.772;2023-06-19T08:32:53;25.70;33.20
6206;DHT22;3136;48.788;9.772;2023-06-19T08:35:18;26.00;32.20
6206;DHT22;3136;48.788;9.772;2023-06-19T08:37:44;26.30;31.10
6206;DHT22;3136;48.788;9.772;2023-06-19T08:40:11;26.30;28.10
6206;DHT22;3136;48.788;9.772;2023-06-19T08:42:37;26.10;28.10
6206;DHT22;3136;48.788;9.772;2023-06-19T08:45:08;26.10;27.80
6206;DHT22;3136;48.788;9.772;2023-06-19T08:47:34;26.10;30.30
6206;DHT22;3136;48.788;9.772;2023-06-19T08:49:59;26.10;30.00
6206;DHT22;3136;48.788;9.772;2023-06-19T08:52:25;26.00;29.60
6206;DHT22;3136;48.788;9.772;2023-06-19T08:54:51;26.00;28.90
6206;DHT22;3136;48.788;9.772;2023-06-19T08:57:17;26.00;29.70
6206;DHT22;3136;48.788;9.772;2023-06-19T08:59:50;26.10;27.60
6206;DHT22;3136;48.788;9.772;2023-06-19T09:02:16;26.20;28.50
6206;DHT22;3136;48.788;9.772;2023-06-19T09:04:41;26.20;28.20
6206;DHT22;3136;48.788;9.772;2023-06-19T09:07:08;26.30;26.20
6206;DHT22;3136;48.788;9.772;2023-06-19T09:09:34;26.20;27.50
6206;DHT22;3136;48.788;9.772;2023-06-19T09:12:04;26.20;27.60
6206;DHT22;3136;48.788;9.772;2023-06-19T09:14:34;26.10;26.90
6206;DHT22;3136;48.788;9.772;2023-06-19T09:17:01;26.00;26.10
6206;DHT22;3136;48.788;9.772;2023-06-19T09:19:27;26.10;26.90
6206;DHT22;3136;48.788;9.772;2023-06-19T09:21:53;26.20;26.80
6206;DHT22;3136;48.788;9.772;2023-06-19T09:24:18;26.40;26.10
6206;DHT22;3136;48.788;9.772;2023-06-19T09:26:44;26.50;25.20
6206;DHT22;3136;48.788;9.772;2023-06-19T09:29:11;26.70;25.70
6206;DHT22;3136;48.788;9.772;2023-06-19T09:31:37;26.80;24.10
6206;DHT22;3136;48.788;9.772;2023-06-19T09:34:04;27.00;25.20
6206;DHT22;3136;48.788;9.772;2023-06-19T09:36:31;27.10;23.20
6206;DHT22;3136;48.788;9.772;2023-06-19T09:38:59;27.10;24.40
6206;DHT22;3136;48.788;9.772;2023-06-19T09:41:25;27.10;23.40
6206;DHT22;3136;48.788;9.772;2023-06-19T09:43:54;27.50;23.00
6206;DHT22;3136;48.788;9.772;2023-06-19T09:46:27;27.60;40.90
6206;DHT22;3136;48.788;9.772;2023-06-19T09:48:58;27.50;20.80
6206;DHT22;3136;48.788;9.772;2023-06-19T09:51:31;27.80;22.40
6206;DHT22;3136;48.788;9.772;2023-06-19T09:53:58;28.00;19.00
6206;DHT22;3136;48.788;9.772;2023-06-19T09:56:24;28.20;18.70
6206;DHT22;3136;48.788;9.772;2023-06-19T09:58:54;28.30;19.10
6206;DHT22;3136;48.788;9.772;2023-06-19T10:01:20;28.40;18.80
6206;DHT22;3136;48.788;9.772;2023-06-19T10:03:46;28.40;16.60
6206;DHT22;3136;48.788;9.772;2023-06-19T10:06:16;28.20;17.50
6206;DHT22;3136;48.788;9.772;2023-06-19T10:08:43;28.10;15.80
6206;DHT22;3136;48.788;9.772;2023-06-19T10:11:13;28.10;17.90
6206;DHT22;3136;48.788;9.772;2023-06-19T10:13:41;28.10;15.40
6206;DHT22;3136;48.788;9.772;2023-06-19T10:16:07;28.30;16.40
6206;DHT22;3136;48.788;9.772;2023-06-19T10:18:44;28.40;17.30
6206;DHT22;3136;48.788;9.772;2023-06-19T10:21:21;28.40;14.60
6206;DHT22;3136;48.788;9.772;2023-06-19T10:23:57;28.50;15.50
6206;DHT22;3136;48.788;9.772;2023-06-19T10:26:55;28.50;14.80
6206;DHT22;3136;48.788;9.772;2023-06-19T10:29:22;28.60;14.10
6206;DHT22;3136;48.788;9.772;2023-06-19T10:31:48;28.60;14.30
6206;DHT22;3136;48.788;9.772;2023-06-19T10:34:13;28.80;12.20
6206;DHT22;3136;48.788;9.772;2023-06-19T10:36:39;28.80;13.30
6206;DHT22;3136;48.788;9.772;2023-06-19T10:39:04;29.10;13.20
6206;DHT22;3136;48.788;9.772;2023-06-19T10:41:31;29.30;12.30
6206;DHT22;3136;48.788;9.772;2023-06-19T10:44:02;29.50;12.60
6206;DHT22;3136;48.788;9.772;2023-06-19T10:46:35;29.80;11.70
6206;DHT22;3136;48.788;9.772;2023-06-19T10:49:02;30.10;11.00
6206;DHT22;3136;48.788;9.772;2023-06-19T10:51:30;30.30;10.20
6206;DHT22;3136;48.788;9.772;2023-06-19T10:53:57;30.70;9.40
6206;DHT22;3136;48.788;9.772;2023-06-19T10:56:23;30.70;6.20
6206;DHT22;3136;48.788;9.772;2023-06-19T10:59:06;30.70;6.20
6206;DHT22;3136;48.788;9.772;2023-06-19T11:01:37;30.50;6.30
6206;DHT22;3136;48.788;9.772;2023-06-19T11:04:07;30.40;7.60
6206;DHT22;3136;48.788;9.772;2023-06-19T11:06:34;30.10;7.60
6206;DHT22;3136;48.788;9.772;2023-06-19T11:09:00;29.80;8.90
6206;DHT22;3136;48.788;9.772;2023-06-19T11:11:45;29.60;7.70
6206;DHT22;3136;48.788;9.772;2023-06-19T11:14:13;29.40;8.20
6206;DHT22;3136;48.788;9.772;2023-06-19T11:16:49;29.50;8.20
6206;DHT22;3136;48.788;9.772;2023-06-19T11:19:17;29.60;9.60
6206;DHT22;3136;48.788;9.772;2023-06-19T11:21:46;29.60;7.60
6206;DHT22;3136;48.788;9.772;2023-06-19T11:24:13;29.70;9.90
6206;DHT22;3136;48.788;9.772;2023-06-19T11:26:43;29.90;7.40
6206;DHT22;3136;48.788;9.772;2023-06-19T11:29:19;30.30;7.10
6206;DHT22;3136;48.788;9.772;2023-06-19T11:31:46;30.70;6.60
6206;DHT22;3136;48.788;9.772;2023-06-19T11:34:12;31.10;5.00
6206;DHT22;3136;48.788;9.772;2023-06-19T11:36:40;31.20;6.00
6206;DHT22;3136;48.788;9.772;2023-06-19T11:39:14;31.50;4.80
6206;DHT22;3136;48.788;9.772;2023-06-19T11:41:41;32.20;4.60
6206;DHT22;3136;48.788;9.772;2023-06-19T11:44:08;33.00;3.80
6206;DHT22;3136;48.788;9.772;2023-06-19T11:46:37;33.80;1.00
6206;DHT22;3136;48.788;9.772;2023-06-19T11:51:35;33.60;3.20
6206;DHT22;3136;48.788;9.772;2023-06-19T11:54:01;33.50;1.00
6206;DHT22;3136;48.788;9.772;2023-06-19T11:56:27;33.80;1.00
6206;DHT22;3136;48.788;9.772;2023-06-19T11:58:52;34.10;1.00
6206;DHT22;3136;48.788;9.772;2023-06-19T12:01:18;34.40;1.00
6206;DHT22;3136;48.788;9.772;2023-06-19T12:03:43;33.70;1.00
6206;DHT22;3136;48.788;9.772;2023-06-19T12:06:09;32.80;1.00
6206;DHT22;3136;48.788;9.772;2023-06-19T12:08:35;32.40;1.00
6206;DHT22;3136;48.788;9.772;2023-06-19T12:11:02;32.50;1.00
6206;DHT22;3136;48.788;9.772;2023-06-19T12:13:28;33.00;1.10
6206;DHT22;3136;48.788;9.772;2023-06-19T12:15:54;33.30;1.00
6206;DHT22;3136;48.788;9.772;2023-06-19T12:18:19;33.30;1.00
6206;DHT22;3136;48.788;9.772;2023-06-19T12:20:45;32.90;1.00
6206;DHT22;3136;48.788;9.772;2023-06-19T12:23:10;32.30;1.00
6206;DHT22;3136;48.788;9.772;2023-06-19T12:25:36;31.90;1.00
6206;DHT22;3136;48.788;9.772;2023-06-19T12:28:01;31.70;1.00
6206;DHT22;3136;48.788;9.772;2023-06-19T12:30:30;31.50;1.00
6206;DHT22;3136;48.788;9.772;2023-06-19T12:32:56;31.50;1.00
6206;DHT22;3136;48.788;9.772;2023-06-19T12:35:22;31.70;1.00
6206;DHT22;3136;48.788;9.772;2023-06-19T12:37:48;31.80;1.00
6206;DHT22;3136;48.788;9.772;2023-06-19T12:40:14;31.60;1.00
6206;DHT22;3136;48.788;9.772;2023-06-19T12:42:39;31.40;1.00
6206;DHT22;3136;48.788;9.772;2023-06-19T12:45:06;31.20;1.00
6206;DHT22;3136;48.788;9.772;2023-06-19T12:47:32;31.30;1.00
6206;DHT22;3136;48.788;9.772;2023-06-19T12:49:57;31.50;1.00
6206;DHT22;3136;48.788;9.772;2023-06-19T12:52:23;31.80;1.00
6206;DHT22;3136;48.788;9.772;2023-06-19T12:54:48;32.40;1.00
6206;DHT22;3136;48.788;9.772;2023-06-19T12:57:14;33.00;1.00
6206;DHT22;3136;48.788;9.772;2023-06-19T12:59:40;33.60;1.00
6206;DHT22;3136;48.788;9.772;2023-06-19T13:02:05;34.10;1.00
6206;DHT22;3136;48.788;9.772;2023-06-19T13:04:31;34.60;1.00
6206;DHT22;3136;48.788;9.772;2023-06-19T13:06:56;34.50;1.00
6206;DHT22;3136;48.788;9.772;2023-06-19T13:09:23;34.10;1.00
6206;DHT22;3136;48.788;9.772;2023-06-19T13:11:48;34.10;1.00
6206;DHT22;3136;48.788;9.772;2023-06-19T13:14:15;34.30;1.00
6206;DHT22;3136;48.788;9.772;2023-06-19T13:16:40;34.40;1.00
6206;DHT22;3136;48.788;9.772;2023-06-19T13:19:06;34.40;1.00
6206;DHT22;3136;48.788;9.772;2023-06-19T13:21:31;33.90;1.00
6206;DHT22;3136;48.788;9.772;2023-06-19T13:23:57;33.70;1.00
6206;DHT22;3136;48.788;9.772;2023-06-19T13:26:23;33.60;1.00
6206;DHT22;3136;48.788;9.772;2023-06-19T13:28:48;33.30;1.00
6206;DHT22;3136;48.788;9.772;2023-06-19T13:31:14;33.20;1.00
6206;DHT22;3136;48.788;9.772;2023-06-19T13:33:39;33.20;1.00
6206;DHT22;3136;48.788;9.772;2023-06-19T13:36:05;33.40;1.00
6206;DHT22;3136;48.788;9.772;2023-06-19T13:38:30;33.30;1.00
6206;DHT22;3136;48.788;9.772;2023-06-19T13:40:57;33.30;1.00
6206;DHT22;3136;48.788;9.772;2023-06-19T13:43:22;33.40;1.00
6206;DHT22;3136;48.788;9.772;2023-06-19T13:45:49;33.80;1.00
6206;DHT22;3136;48.788;9.772;2023-06-19T13:48:14;34.40;1.00
6206;DHT22;3136;48.788;9.772;2023-06-19T13:50:40;34.90;1.00
6206;DHT22;3136;48.788;9.772;2023-06-19T13:53:05;35.50;1.00
6206;DHT22;3136;48.788;9.772;2023-06-19T13:55:31;35.90;1.00
6206;DHT22;3136;48.788;9.772;2023-06-19T13:57:57;36.10;1.00
6206;DHT22;3136;48.788;9.772;2023-06-19T14:00:23;35.90;1.00
6206;DHT22;3136;48.788;9.772;2023-06-19T14:02:48;35.70;1.00
6206;DHT22;3136;48.788;9.772;2023-06-19T14:05:15;35.10;1.00
6206;DHT22;3136;48.788;9.772;2023-06-19T14:07:41;34.30;1.00
6206;DHT22;3136;48.788;9.772;2023-06-19T14:10:07;33.60;1.00
6206;DHT22;3136;48.788;9.772;2023-06-19T14:12:33;33.00;1.00
6206;DHT22;3136;48.788;9.772;2023-06-19T14:14:59;32.50;1.00
6206;DHT22;3136;48.788;9.772;2023-06-19T14:17:24;32.20;1.00
6206;DHT22;3136;48.788;9.772;2023-06-19T14:19:50;32.00;1.00
6206;DHT22;3136;48.788;9.772;2023-06-19T14:22:16;31.90;1.00
6206;DHT22;3136;48.788;9.772;2023-06-19T14:24:42;31.80;1.00
6206;DHT22;3136;48.788;9.772;2023-06-19T14:27:08;31.80;1.00
6206;DHT22;3136;48.788;9.772;2023-06-19T14:29:33;31.60;1.00
6206;DHT22;3136;48.788;9.772;2023-06-19T14:31:59;31.50;1.00
6206;DHT22;3136;48.788;9.772;2023-06-19T14:34:24;31.40;1.00
6206;DHT22;3136;48.788;9.772;2023-06-19T14:36:50;31.40;1.00
6206;DHT22;3136;48.788;9.772;2023-06-19T14:39:16;31.40;1.00
6206;DHT22;3136;48.788;9.772;2023-06-19T14:41:41;31.40;1.00
6206;DHT22;3136;48.788;9.772;2023-06-19T14:44:07;31.30;1.00
6206;DHT22;3136;48.788;9.772;2023-06-19T14:46:33;31.30;1.00
6206;DHT22;3136;48.788;9.772;2023-06-19T14:48:59;31.30;1.00
6206;DHT22;3136;48.788;9.772;2023-06-19T14:51:26;31.30;1.00
6206;DHT22;3136;48.788;9.772;2023-06-19T14:53:52;31.30;1.00
6206;DHT22;3136;48.788;9.772;2023-06-19T14:56:17;31.30;1.00
6206;DHT22;3136;48.788;9.772;2023-06-19T14:58:43;31.20;1.00
6206;DHT22;3136;48.788;9.772;2023-06-19T15:01:09;31.00;1.00
6206;DHT22;3136;48.788;9.772;2023-06-19T15:03:35;31.00;1.00
6206;DHT22;3136;48.788;9.772;2023-06-19T15:06:01;30.90;1.00
6206;DHT22;3136;48.788;9.772;2023-06-19T15:08:26;30.90;1.00
6206;DHT22;3136;48.788;9.772;2023-06-19T15:10:52;30.80;1.00
6206;DHT22;3136;48.788;9.772;2023-06-19T15:13:18;30.80;1.00
6206;DHT22;3136;48.788;9.772;2023-06-19T15:15:44;30.80;1.00
6206;DHT22;3136;48.788;9.772;2023-06-19T15:18:11;30.70;1.00
6206;DHT22;3136;48.788;9.772;2023-06-19T15:20:36;30.70;1.00
6206;DHT22;3136;48.788;9.772;2023-06-19T15:23:05;30.70;1.00
6206;DHT22;3136;48.788;9.772;2023-06-19T15:25:30;30.60;1.00
6206;DHT22;3136;48.788;9.772;2023-06-19T15:27:56;30.50;1.00
6206;DHT22;3136;48.788;9.772;2023-06-19T15:30:22;30.40;1.00
6206;DHT22;3136;48.788;9.772;2023-06-19T15:32:48;30.40;1.00
6206;DHT22;3136;48.788;9.772;2023-06-19T15:35:13;30.20;1.00
6206;DHT22;3136;48.788;9.772;2023-06-19T15:37:39;30.20;1.00
6206;DHT22;3136;48.788;9.772;2023-06-19T15:40:05;30.20;1.00
6206;DHT22;3136;48.788;9.772;2023-06-19T15:42:31;30.10;1.00
6206;DHT22;3136;48.788;9.772;2023-06-19T15:44:56;30.10;1.00
6206;DHT22;3136;48.788;9.772;2023-06-19T15:47:22;30.10;1.00
6206;DHT22;3136;48.788;9.772;2023-06-19T15:49:48;30.00;1.00
6206;DHT22;3136;48.788;9.772;2023-06-19T15:52:13;30.10;1.00
6206;DHT22;3136;48.788;9.772;2023-06-19T15:54:39;30.10;1.00
6206;DHT22;3136;48.788;9.772;2023-06-19T15:57:05;30.10;1.00
6206;DHT22;3136;48.788;9.772;2023-06-19T15:59:30;30.00;1.00
6206;DHT22;3136;48.788;9.772;2023-06-19T16:01:56;30.10;1.00
6206;DHT22;3136;48.788;9.772;2023-06-19T16:04:22;30.10;9.40